createdAt,value
2017-10-23T00:00:34.595Z,1026.93
2017-10-23T00:01:34.587Z,1026.93
2017-10-23T00:02:34.580Z,1026.9
2017-10-23T00:03:34.573Z,1026.93
2017-10-23T00:04:34.565Z,1026.93
2017-10-23T00:05:34.555Z,1026.93
2017-10-23T00:06:34.548Z,1026.96
2017-10-23T00:07:34.542Z,1026.93
2017-10-23T00:08:34.532Z,1026.94
2017-10-23T00:09:34.524Z,1026.96
2017-10-23T00:10:34.516Z,1026.97
2017-10-23T00:11:34.509Z,1026.99
2017-10-23T00:12:34.501Z,1026.95
2017-10-23T00:13:34.493Z,1026.99
2017-10-23T00:14:34.485Z,1026.95
2017-10-23T00:15:34.478Z,1026.94
2017-10-23T00:16:34.469Z,1026.91
2017-10-23T00:17:34.462Z,1026.91
2017-10-23T00:18:34.454Z,1026.9
2017-10-23T00:19:34.450Z,1026.84
2017-10-23T00:20:34.436Z,1026.9
2017-10-23T00:21:34.431Z,1026.94
2017-10-23T00:22:34.422Z,1026.91
2017-10-23T00:23:34.414Z,1026.92
2017-10-23T00:24:34.407Z,1026.88
2017-10-23T00:25:34.399Z,1026.9
2017-10-23T00:26:34.391Z,1026.9
2017-10-23T00:27:34.382Z,1026.89
2017-10-23T00:28:34.374Z,1026.84
2017-10-23T00:29:34.367Z,1026.86
2017-10-23T00:30:34.358Z,1026.83
2017-10-23T00:31:34.350Z,1026.88
2017-10-23T00:32:34.345Z,1026.89
2017-10-23T00:33:34.335Z,1026.88
2017-10-23T00:34:34.326Z,1026.91
2017-10-23T00:35:34.318Z,1026.91
2017-10-23T00:36:34.310Z,1026.94
2017-10-23T00:37:34.303Z,1026.91
2017-10-23T00:38:34.295Z,1026.94
2017-10-23T00:39:34.289Z,1026.96
2017-10-23T00:40:34.280Z,1026.94
2017-10-23T00:41:34.271Z,1026.99
2017-10-23T00:42:34.263Z,1027
2017-10-23T00:43:34.254Z,1027.01
2017-10-23T00:44:34.248Z,1027.04
2017-10-23T00:45:34.240Z,1027.06
2017-10-23T00:46:34.231Z,1027.11
2017-10-23T00:47:34.225Z,1027.06
2017-10-23T00:48:34.217Z,1027.08
2017-10-23T00:49:34.208Z,1027.05
2017-10-23T00:50:34.208Z,1027.1
2017-10-23T00:51:34.191Z,1027.1
2017-10-23T00:52:34.184Z,1027.06
2017-10-23T00:53:34.177Z,1027.07
2017-10-23T00:54:34.168Z,1027.08
2017-10-23T00:55:34.161Z,1027.03
2017-10-23T00:56:34.152Z,1027.05
2017-10-23T00:57:34.146Z,1027.12
2017-10-23T00:58:34.136Z,1027.1
2017-10-23T00:59:34.133Z,1027.12
2017-10-23T01:00:34.120Z,1027.09
2017-10-23T01:01:34.113Z,1027.1
2017-10-23T01:02:34.104Z,1027.14
2017-10-23T01:03:34.095Z,1027.13
2017-10-23T01:04:34.088Z,1027.18
2017-10-23T01:05:34.080Z,1027.16
2017-10-23T01:06:34.074Z,1027.15
2017-10-23T01:07:34.063Z,1027.14
2017-10-23T01:08:34.057Z,1027.24
2017-10-23T01:09:34.049Z,1027.22
2017-10-23T01:10:34.041Z,1027.24
2017-10-23T01:11:34.031Z,1027.29
2017-10-23T01:12:34.024Z,1027.26
2017-10-23T01:13:34.017Z,1027.22
2017-10-23T01:14:34.007Z,1027.18
2017-10-23T01:15:34.001Z,1027.15
2017-10-23T01:16:33.993Z,1027.14
2017-10-23T01:17:33.986Z,1027.19
2017-10-23T01:18:33.981Z,1027.15
2017-10-23T01:19:33.968Z,1027.15
2017-10-23T01:20:33.961Z,1027.11
2017-10-23T01:21:33.953Z,1027.06
2017-10-23T01:22:33.946Z,1027.09
2017-10-23T01:23:33.937Z,1027.06
2017-10-23T01:24:33.947Z,1027.05
2017-10-23T01:25:33.922Z,1027.03
2017-10-23T01:26:33.914Z,1027.03
2017-10-23T01:27:33.907Z,1027.11
2017-10-23T01:28:33.899Z,1027.08
2017-10-23T01:29:33.889Z,1027.12
2017-10-23T01:30:33.882Z,1027.1
2017-10-23T01:31:33.875Z,1027.09
2017-10-23T01:32:33.870Z,1027.08
2017-10-23T01:33:33.858Z,1027.11
2017-10-23T01:34:33.850Z,1027.08
2017-10-23T01:35:33.843Z,1027.09
2017-10-23T01:36:33.836Z,1027.04
2017-10-23T01:37:33.827Z,1027.07
2017-10-23T01:38:33.819Z,1027.1
2017-10-23T01:39:33.811Z,1027.05
2017-10-23T01:40:33.804Z,1027.06
2017-10-23T01:41:33.795Z,1027.04
2017-10-23T01:42:33.787Z,1027.07
2017-10-23T01:43:33.778Z,1027.03
2017-10-23T01:44:33.770Z,1027.09
2017-10-23T01:45:33.763Z,1027.11
2017-10-23T01:46:33.756Z,1027.13
2017-10-23T01:47:33.748Z,1027.09
2017-10-23T01:48:33.738Z,1027.11
2017-10-23T01:49:33.732Z,1027.09
2017-10-23T01:50:33.727Z,1027.12
2017-10-23T01:51:33.716Z,1027.11
2017-10-23T01:52:33.707Z,1027.15
2017-10-23T01:53:33.700Z,1027.15
2017-10-23T01:54:33.690Z,1027.15
2017-10-23T01:55:33.685Z,1027.21
2017-10-23T01:56:33.676Z,1027.18
2017-10-23T01:57:33.669Z,1027.2
2017-10-23T01:58:33.659Z,1027.22
2017-10-23T01:59:33.652Z,1027.22
2017-10-23T02:00:33.644Z,1027.24
2017-10-23T02:01:33.643Z,1027.23
2017-10-23T02:02:33.630Z,1027.23
2017-10-23T02:03:33.621Z,1027.24
2017-10-23T02:04:33.614Z,1027.27
2017-10-23T02:05:33.604Z,1027.24
2017-10-23T02:06:33.607Z,1027.23
2017-10-23T02:07:33.589Z,1027.24
2017-10-23T02:08:33.581Z,1027.26
2017-10-23T02:09:33.576Z,1027.24
2017-10-23T02:10:33.566Z,1027.26
2017-10-23T02:11:33.558Z,1027.24
2017-10-23T02:12:33.550Z,1027.25
2017-10-23T02:13:33.542Z,1027.29
2017-10-23T02:14:33.534Z,1027.31
2017-10-23T02:15:33.526Z,1027.33
2017-10-23T02:16:33.518Z,1027.31
2017-10-23T02:17:33.509Z,1027.34
2017-10-23T02:18:33.502Z,1027.31
2017-10-23T02:19:33.499Z,1027.32
2017-10-23T02:20:33.485Z,1027.35
2017-10-23T02:21:33.478Z,1027.34
2017-10-23T02:22:33.471Z,1027.37
2017-10-23T02:23:33.462Z,1027.37
2017-10-23T02:24:33.453Z,1027.39
2017-10-23T02:25:33.447Z,1027.37
2017-10-23T02:26:33.438Z,1027.43
2017-10-23T02:27:33.430Z,1027.4
2017-10-23T02:28:33.422Z,1027.44
2017-10-23T02:29:33.418Z,1027.47
2017-10-23T02:30:33.407Z,1027.5
2017-10-23T02:31:33.426Z,1027.48
2017-10-23T02:32:33.391Z,1027.47
2017-10-23T02:33:33.382Z,1027.49
2017-10-23T02:34:33.376Z,1027.49
2017-10-23T02:35:33.366Z,1027.47
2017-10-23T02:36:33.359Z,1027.53
2017-10-23T02:37:33.353Z,1027.54
2017-10-23T02:38:33.343Z,1027.51
2017-10-23T02:39:33.334Z,1027.55
2017-10-23T02:40:33.326Z,1027.55
2017-10-23T02:41:33.318Z,1027.62
2017-10-23T02:42:33.311Z,1027.59
2017-10-23T02:43:33.302Z,1027.64
2017-10-23T02:44:33.296Z,1027.64
2017-10-23T02:45:33.287Z,1027.7
2017-10-23T02:46:33.278Z,1027.72
2017-10-23T02:47:33.271Z,1027.72
2017-10-23T02:48:33.262Z,1027.72
2017-10-23T02:49:33.254Z,1027.72
2017-10-23T02:50:33.247Z,1027.72
2017-10-23T02:51:33.239Z,1027.77
2017-10-23T02:52:33.231Z,1027.73
2017-10-23T02:53:33.222Z,1027.72
2017-10-23T02:54:33.214Z,1027.74
2017-10-23T02:55:33.207Z,1027.68
2017-10-23T02:56:33.198Z,1027.68
2017-10-23T02:57:33.192Z,1027.68
2017-10-23T02:58:33.181Z,1027.64
2017-10-23T02:59:33.174Z,1027.65
2017-10-23T03:00:33.167Z,1027.62
2017-10-23T03:01:33.158Z,1027.64
2017-10-23T03:02:33.150Z,1027.62
2017-10-23T03:03:33.142Z,1027.57
2017-10-23T03:04:33.133Z,1027.59
2017-10-23T03:05:33.127Z,1027.59
2017-10-23T03:06:33.118Z,1027.61
2017-10-23T03:07:33.109Z,1027.64
2017-10-23T03:08:33.101Z,1027.62
2017-10-23T03:09:33.094Z,1027.63
2017-10-23T03:10:33.090Z,1027.61
2017-10-23T03:11:33.077Z,1027.62
2017-10-23T03:12:33.076Z,1027.58
2017-10-23T03:13:33.059Z,1027.62
2017-10-23T03:14:33.054Z,1027.62
2017-10-23T03:15:33.047Z,1027.64
2017-10-23T03:16:33.037Z,1027.64
2017-10-23T03:17:33.029Z,1027.68
2017-10-23T03:18:33.020Z,1027.72
2017-10-23T03:19:33.011Z,1027.71
2017-10-23T03:20:33.005Z,1027.73
2017-10-23T03:21:32.997Z,1027.76
2017-10-23T03:22:32.986Z,1027.79
2017-10-23T03:23:32.980Z,1027.79
2017-10-23T03:24:32.972Z,1027.86
2017-10-23T03:25:32.964Z,1027.8
2017-10-23T03:26:32.955Z,1027.87
2017-10-23T03:27:32.946Z,1027.9
2017-10-23T03:28:32.939Z,1027.92
2017-10-23T03:29:32.930Z,1027.96
2017-10-23T03:30:32.923Z,1028.01
2017-10-23T03:31:32.917Z,1028.02
2017-10-23T03:32:32.905Z,1027.99
2017-10-23T03:33:32.897Z,1028
2017-10-23T03:34:32.890Z,1028.01
2017-10-23T03:35:32.882Z,1028.05
2017-10-23T03:36:32.873Z,1028.07
2017-10-23T03:37:32.865Z,1028.08
2017-10-23T03:38:32.856Z,1028.06
2017-10-23T03:39:32.854Z,1028.09
2017-10-23T03:40:32.840Z,1028.06
2017-10-23T03:41:32.833Z,1028.07
2017-10-23T03:42:32.824Z,1028.05
2017-10-23T03:43:32.816Z,1028.06
2017-10-23T03:44:32.806Z,1028.05
2017-10-23T03:45:32.800Z,1028.04
2017-10-23T03:46:32.792Z,1028.03
2017-10-23T03:47:32.783Z,1028.01
2017-10-23T03:48:32.773Z,1028.05
2017-10-23T03:49:32.766Z,1028.06
2017-10-23T03:50:32.759Z,1028.07
2017-10-23T03:51:32.750Z,1028.07
2017-10-23T03:52:32.740Z,1028.08
2017-10-23T03:53:32.734Z,1028.08
2017-10-23T03:54:32.725Z,1028.08
2017-10-23T03:55:32.716Z,1028.05
2017-10-23T03:56:32.709Z,1028.07
2017-10-23T03:57:32.699Z,1028.05
2017-10-23T03:58:32.693Z,1028.07
2017-10-23T03:59:32.684Z,1028.08
2017-10-23T04:00:32.676Z,1028.06
2017-10-23T04:01:32.668Z,1028.07
2017-10-23T04:02:32.658Z,1028.09
2017-10-23T04:03:32.651Z,1028.11
2017-10-23T04:04:32.641Z,1028.11
2017-10-23T04:05:32.643Z,1028.17
2017-10-23T04:06:32.626Z,1028.15
2017-10-23T04:07:32.618Z,1028.21
2017-10-23T04:08:32.610Z,1028.18
2017-10-23T04:09:32.602Z,1028.18
2017-10-23T04:10:32.593Z,1028.21
2017-10-23T04:11:32.585Z,1028.18
2017-10-23T04:12:32.577Z,1028.21
2017-10-23T04:13:32.568Z,1028.22
2017-10-23T04:14:32.560Z,1028.24
2017-10-23T04:15:32.552Z,1028.26
2017-10-23T04:16:32.545Z,1028.25
2017-10-23T04:17:32.536Z,1028.28
2017-10-23T04:18:32.527Z,1028.3
2017-10-23T04:19:32.519Z,1028.31
2017-10-23T04:20:32.513Z,1028.32
2017-10-23T04:21:32.503Z,1028.38
2017-10-23T04:22:32.494Z,1028.42
2017-10-23T04:23:32.487Z,1028.44
2017-10-23T04:24:32.478Z,1028.47
2017-10-23T04:25:32.470Z,1028.52
2017-10-23T04:26:32.463Z,1028.52
2017-10-23T04:27:32.453Z,1028.53
2017-10-23T04:28:32.446Z,1028.51
2017-10-23T04:29:32.443Z,1028.53
2017-10-23T04:30:32.429Z,1028.52
2017-10-23T04:31:32.423Z,1028.56
2017-10-23T04:32:32.413Z,1028.58
2017-10-23T04:33:32.404Z,1028.57
2017-10-23T04:34:32.397Z,1028.53
2017-10-23T04:35:32.388Z,1028.54
2017-10-23T04:36:32.380Z,1028.51
2017-10-23T04:37:32.373Z,1028.51
2017-10-23T04:38:32.364Z,1028.47
2017-10-23T04:39:32.355Z,1028.45
2017-10-23T04:40:32.346Z,1028.47
2017-10-23T04:41:32.339Z,1028.47
2017-10-23T04:42:32.330Z,1028.49
2017-10-23T04:43:32.324Z,1028.5
2017-10-23T04:44:32.313Z,1028.46
2017-10-23T04:45:32.305Z,1028.53
2017-10-23T04:46:32.296Z,1028.55
2017-10-23T04:47:32.288Z,1028.51
2017-10-23T04:48:32.288Z,1028.5
2017-10-23T04:49:32.272Z,1028.52
2017-10-23T04:50:32.264Z,1028.56
2017-10-23T04:51:32.255Z,1028.55
2017-10-23T04:52:32.247Z,1028.54
2017-10-23T04:53:32.238Z,1028.56
2017-10-23T04:54:32.234Z,1028.57
2017-10-23T04:55:32.220Z,1028.6
2017-10-23T04:56:32.213Z,1028.69
2017-10-23T04:57:32.205Z,1028.73
2017-10-23T04:58:32.198Z,1028.82
2017-10-23T04:59:32.189Z,1028.89
2017-10-23T05:00:32.181Z,1028.95
2017-10-23T05:01:32.172Z,1029
2017-10-23T05:02:32.163Z,1029.05
2017-10-23T05:03:32.155Z,1029.12
2017-10-23T05:04:32.146Z,1029.13
2017-10-23T05:05:32.137Z,1029.2
2017-10-23T05:06:32.130Z,1029.28
2017-10-23T05:07:32.120Z,1029.31
2017-10-23T05:08:32.112Z,1029.33
2017-10-23T05:09:32.103Z,1029.33
2017-10-23T05:10:32.096Z,1029.36
2017-10-23T05:11:32.088Z,1029.4
2017-10-23T05:12:32.078Z,1029.39
2017-10-23T05:13:32.069Z,1029.38
2017-10-23T05:14:32.062Z,1029.39
2017-10-23T05:15:32.052Z,1029.33
2017-10-23T05:16:32.041Z,1029.31
2017-10-23T05:17:32.035Z,1029.31
2017-10-23T05:18:32.027Z,1029.28
2017-10-23T05:19:32.016Z,1029.24
2017-10-23T05:20:32.012Z,1029.3
2017-10-23T05:21:31.999Z,1029.28
2017-10-23T05:22:31.991Z,1029.24
2017-10-23T05:23:31.981Z,1029.28
2017-10-23T05:24:31.974Z,1029.25
2017-10-23T05:25:31.964Z,1029.27
2017-10-23T05:26:31.955Z,1029.25
2017-10-23T05:27:31.951Z,1029.28
2017-10-23T05:28:31.938Z,1029.3
2017-10-23T05:29:31.930Z,1029.26
2017-10-23T05:30:31.924Z,1029.31
2017-10-23T05:31:31.912Z,1029.32
2017-10-23T05:32:31.912Z,1029.29
2017-10-23T05:33:31.894Z,1029.29
2017-10-23T05:34:31.884Z,1029.27
2017-10-23T05:35:31.876Z,1029.35
2017-10-23T05:36:31.880Z,1029.35
2017-10-23T05:37:31.858Z,1029.46
2017-10-23T05:38:31.849Z,1029.51
2017-10-23T05:39:31.841Z,1029.59
2017-10-23T05:40:31.831Z,1029.68
2017-10-23T05:41:31.824Z,1029.75
2017-10-23T05:42:31.813Z,1029.85
2017-10-23T05:43:31.805Z,1029.95
2017-10-23T05:44:31.796Z,1029.98
2017-10-23T05:45:31.788Z,1030.02
2017-10-23T05:46:31.778Z,1030.11
2017-10-23T05:47:31.770Z,1030.11
2017-10-23T05:48:31.761Z,1030.16
2017-10-23T05:49:31.751Z,1030.15
2017-10-23T05:50:31.741Z,1030.21
2017-10-23T05:51:31.732Z,1030.22
2017-10-23T05:52:31.723Z,1030.24
2017-10-23T05:53:31.715Z,1030.22
2017-10-23T05:54:31.706Z,1030.22
2017-10-23T05:55:31.697Z,1030.29
2017-10-23T05:56:31.686Z,1030.31
2017-10-23T05:57:31.676Z,1030.33
2017-10-23T05:58:31.667Z,1030.33
2017-10-23T05:59:31.658Z,1030.4
2017-10-23T06:00:31.650Z,1030.45
2017-10-23T06:01:31.647Z,1030.42
2017-10-23T06:02:31.630Z,1030.46
2017-10-23T06:03:31.621Z,1030.44
2017-10-23T06:04:31.612Z,1030.51
2017-10-23T06:05:31.617Z,1030.51
2017-10-23T06:06:31.593Z,1030.54
2017-10-23T06:07:31.584Z,1030.57
2017-10-23T06:08:31.576Z,1030.54
2017-10-23T06:09:31.566Z,1030.57
2017-10-23T06:10:31.561Z,1030.55
2017-10-23T06:11:31.548Z,1030.54
2017-10-23T06:12:31.537Z,1030.49
2017-10-23T06:13:31.530Z,1030.5
2017-10-23T06:14:31.518Z,1030.43
2017-10-23T06:15:31.508Z,1030.37
2017-10-23T06:16:31.499Z,1030.32
2017-10-23T06:17:31.489Z,1030.2
2017-10-23T06:18:31.479Z,1030.09
2017-10-23T06:19:31.473Z,1030.02
2017-10-23T06:20:31.462Z,1029.96
2017-10-23T06:21:31.451Z,1029.87
2017-10-23T06:22:31.442Z,1029.87
2017-10-23T06:23:31.433Z,1029.85
2017-10-23T06:24:31.422Z,1029.8
2017-10-23T06:25:31.413Z,1029.77
2017-10-23T06:26:31.703Z,1029.71
2017-10-23T06:27:31.395Z,1029.66
2017-10-23T06:28:31.386Z,1029.57
2017-10-23T06:29:31.376Z,1029.52
2017-10-23T06:30:31.367Z,1029.53
2017-10-23T06:31:31.358Z,1029.37
2017-10-23T06:32:31.347Z,1029.31
2017-10-23T06:33:31.341Z,1029.31
2017-10-23T06:34:31.330Z,1029.22
2017-10-23T06:35:31.323Z,1029.17
2017-10-23T06:36:31.316Z,1029.13
2017-10-23T06:37:31.310Z,1029.09
2017-10-23T06:38:31.296Z,1029.06
2017-10-23T06:39:31.287Z,1028.93
2017-10-23T06:40:31.278Z,1028.88
2017-10-23T06:41:31.269Z,1028.87
2017-10-23T06:42:31.262Z,1028.82
2017-10-23T06:43:31.251Z,1028.76
2017-10-23T06:44:31.246Z,1028.74
2017-10-23T06:45:31.236Z,1028.76
2017-10-23T06:46:31.228Z,1028.71
2017-10-23T06:47:31.218Z,1028.74
2017-10-23T06:48:31.218Z,1028.74
2017-10-23T06:49:31.202Z,1028.72
2017-10-23T06:50:31.195Z,1028.66
2017-10-23T06:51:31.185Z,1028.69
2017-10-23T06:52:31.178Z,1028.64
2017-10-23T06:53:31.170Z,1028.63
2017-10-23T06:54:31.161Z,1028.63
2017-10-23T06:55:31.153Z,1028.57
2017-10-23T06:56:31.146Z,1028.56
2017-10-23T06:57:31.139Z,1028.51
2017-10-23T06:58:31.134Z,1028.56
2017-10-23T06:59:31.123Z,1028.51
2017-10-23T07:00:31.118Z,1028.48
2017-10-23T07:01:31.106Z,1028.51
2017-10-23T07:02:31.099Z,1028.5
2017-10-23T07:03:31.091Z,1028.55
2017-10-23T07:04:31.083Z,1028.53
2017-10-23T07:05:31.075Z,1028.57
2017-10-23T07:06:31.099Z,1028.63
2017-10-23T07:07:31.063Z,1028.59
2017-10-23T07:08:31.053Z,1028.59
2017-10-23T07:09:31.044Z,1028.58
2017-10-23T07:10:31.037Z,1028.53
2017-10-23T07:11:31.028Z,1028.47
2017-10-23T07:12:31.021Z,1028.39
2017-10-23T07:13:31.013Z,1028.34
2017-10-23T07:14:31.007Z,1028.38
2017-10-23T07:15:31.026Z,1028.41
2017-10-23T07:16:30.991Z,1028.41
2017-10-23T07:17:30.983Z,1028.42
2017-10-23T07:18:30.976Z,1028.37
2017-10-23T07:19:30.968Z,1028.31
2017-10-23T07:20:30.961Z,1028.27
2017-10-23T07:21:30.954Z,1028.24
2017-10-23T07:22:30.947Z,1028.23
2017-10-23T07:23:30.938Z,1028.2
2017-10-23T07:24:30.931Z,1028.24
2017-10-23T07:25:30.924Z,1028.25
2017-10-23T07:26:30.917Z,1028.22
2017-10-23T07:27:30.908Z,1028.17
2017-10-23T07:28:30.902Z,1028.18
2017-10-23T07:29:30.894Z,1028.16
2017-10-23T07:30:30.887Z,1028.18
2017-10-23T07:31:30.884Z,1028.18
2017-10-23T07:32:30.873Z,1028.19
2017-10-23T07:33:30.866Z,1028.21
2017-10-23T07:34:30.858Z,1028.21
2017-10-23T07:35:30.850Z,1028.24
2017-10-23T07:36:30.846Z,1028.21
2017-10-23T07:37:30.838Z,1028.19
2017-10-23T07:38:30.830Z,1028.22
2017-10-23T07:39:30.822Z,1028.16
2017-10-23T07:40:30.815Z,1028.1
2017-10-23T07:41:30.809Z,1028.14
2017-10-23T07:42:30.802Z,1028.15
2017-10-23T07:43:30.796Z,1028.14
2017-10-23T07:44:30.789Z,1028.22
2017-10-23T07:45:30.781Z,1028.26
2017-10-23T07:46:30.779Z,1028.26
2017-10-23T07:47:30.769Z,1028.24
2017-10-23T07:48:30.760Z,1028.3
2017-10-23T07:49:30.755Z,1028.27
2017-10-23T07:50:30.751Z,1028.26
2017-10-23T07:51:30.747Z,1028.26
2017-10-23T07:52:30.732Z,1028.27
2017-10-23T07:53:30.739Z,1028.3
2017-10-23T07:54:30.718Z,1028.28
2017-10-23T07:55:30.712Z,1028.24
2017-10-23T07:56:30.706Z,1028.16
2017-10-23T07:57:30.698Z,1028.14
2017-10-23T07:58:30.689Z,1028.04
2017-10-23T07:59:30.686Z,1028
2017-10-23T08:00:30.676Z,1027.97
2017-10-23T08:01:30.668Z,1027.99
2017-10-23T08:02:30.664Z,1027.92
2017-10-23T08:03:30.656Z,1027.93
2017-10-23T08:04:30.649Z,1027.93
2017-10-23T08:05:30.642Z,1027.93
2017-10-23T08:06:30.642Z,1027.92
2017-10-23T08:07:30.629Z,1027.91
2017-10-23T08:08:30.622Z,1027.95
2017-10-23T08:09:30.615Z,1027.96
2017-10-23T08:10:30.860Z,1027.98
2017-10-23T08:11:30.602Z,1027.95
2017-10-23T08:12:30.595Z,1027.96
2017-10-23T08:13:30.588Z,1027.96
2017-10-23T08:14:30.581Z,1027.98
2017-10-23T08:15:30.575Z,1027.94
2017-10-23T08:16:30.570Z,1027.98
2017-10-23T08:17:30.561Z,1028.01
2017-10-23T08:18:30.554Z,1027.99
2017-10-23T08:19:30.548Z,1027.97
2017-10-23T08:20:30.542Z,1027.94
2017-10-23T08:21:30.537Z,1027.9
2017-10-23T08:22:30.528Z,1027.91
2017-10-23T08:23:30.523Z,1027.92
2017-10-23T08:24:30.516Z,1027.86
2017-10-23T08:25:30.509Z,1027.84
2017-10-23T08:26:30.503Z,1027.82
2017-10-23T08:27:30.496Z,1027.77
2017-10-23T08:28:30.490Z,1027.76
2017-10-23T08:29:30.489Z,1027.73
2017-10-23T08:30:30.477Z,1027.71
2017-10-23T08:31:30.470Z,1027.7
2017-10-23T08:32:30.464Z,1027.61
2017-10-23T08:33:30.456Z,1027.54
2017-10-23T08:34:30.451Z,1027.45
2017-10-23T08:35:30.444Z,1027.31
2017-10-23T08:36:30.437Z,1027.19
2017-10-23T08:37:30.431Z,1027.21
2017-10-23T08:38:30.426Z,1027.09
2017-10-23T08:39:30.419Z,1027.08
2017-10-23T08:40:30.413Z,1027.04
2017-10-23T08:41:30.405Z,1027.03
2017-10-23T08:42:30.402Z,1027.02
2017-10-23T08:43:30.396Z,1027.02
2017-10-23T08:44:30.389Z,1027.03
2017-10-23T08:45:30.388Z,1026.94
2017-10-23T08:46:30.381Z,1026.84
2017-10-23T08:47:30.372Z,1026.78
2017-10-23T08:48:30.365Z,1026.73
2017-10-23T08:49:30.361Z,1026.63
2017-10-23T08:50:30.355Z,1026.61
2017-10-23T08:51:30.350Z,1026.6
2017-10-23T08:52:30.346Z,1026.61
2017-10-23T08:53:30.348Z,1026.58
2017-10-23T08:54:30.334Z,1026.49
2017-10-23T08:55:30.328Z,1026.45
2017-10-23T08:56:30.331Z,1026.33
2017-10-23T08:57:30.318Z,1026.19
2017-10-23T08:58:30.312Z,1026.04
2017-10-23T08:59:30.308Z,1025.97
2017-10-23T09:00:30.302Z,1025.86
2017-10-23T09:01:30.297Z,1025.72
2017-10-23T09:02:30.294Z,1025.71
2017-10-23T09:03:30.286Z,1025.64
2017-10-23T09:04:30.300Z,1025.56
2017-10-23T09:05:30.277Z,1025.47
2017-10-23T09:06:30.271Z,1025.38
2017-10-23T09:07:30.267Z,1025.33
2017-10-23T09:08:30.263Z,1025.28
2017-10-23T09:09:30.258Z,1025.27
2017-10-23T09:10:30.254Z,1025.32
2017-10-23T09:11:30.253Z,1025.49
2017-10-23T09:12:30.250Z,1025.54
2017-10-23T09:13:30.243Z,1025.7
2017-10-23T09:14:30.238Z,1025.75
2017-10-23T09:15:30.240Z,1025.78
2017-10-23T09:16:30.230Z,1025.81
2017-10-23T09:17:30.225Z,1025.85
2017-10-23T09:18:30.221Z,1025.83
2017-10-23T09:19:30.217Z,1025.94
2017-10-23T09:20:30.213Z,1026
2017-10-23T09:21:30.208Z,1026
2017-10-23T09:22:30.204Z,1026.08
2017-10-23T09:23:30.199Z,1026.05
2017-10-23T09:24:30.196Z,1026.12
2017-10-23T09:25:30.192Z,1026.1
2017-10-23T09:26:30.189Z,1026.18
2017-10-23T09:27:30.184Z,1026.17
2017-10-23T09:28:30.178Z,1026.22
2017-10-23T09:29:30.175Z,1026.25
2017-10-23T09:30:30.171Z,1026.35
2017-10-23T09:31:30.167Z,1026.4
2017-10-23T09:32:30.161Z,1026.42
2017-10-23T09:33:30.158Z,1026.41
2017-10-23T09:34:30.162Z,1026.43
2017-10-23T09:35:30.149Z,1026.44
2017-10-23T09:36:30.145Z,1026.49
2017-10-23T09:37:30.140Z,1026.49
2017-10-23T09:38:30.135Z,1026.56
2017-10-23T09:39:30.132Z,1026.59
2017-10-23T09:40:30.127Z,1026.64
2017-10-23T09:41:30.123Z,1026.7
2017-10-23T09:42:30.122Z,1026.74
2017-10-23T09:43:30.114Z,1026.73
2017-10-23T09:44:30.109Z,1026.72
2017-10-23T09:45:30.105Z,1026.73
2017-10-23T09:46:30.100Z,1026.73
2017-10-23T09:47:30.095Z,1026.72
2017-10-23T09:48:30.098Z,1026.73
2017-10-23T09:49:30.085Z,1026.73
2017-10-23T09:50:30.081Z,1026.71
2017-10-23T09:51:30.076Z,1026.71
2017-10-23T09:52:30.071Z,1026.73
2017-10-23T09:53:30.068Z,1026.84
2017-10-23T09:54:30.061Z,1026.9
2017-10-23T09:55:30.057Z,1026.92
2017-10-23T09:56:30.052Z,1026.92
2017-10-23T09:57:30.046Z,1026.99
2017-10-23T09:58:30.043Z,1027.01
2017-10-23T09:59:30.038Z,1027.06
2017-10-23T10:00:30.032Z,1027.14
2017-10-23T10:01:30.028Z,1027.19
2017-10-23T10:02:30.023Z,1027.16
2017-10-23T10:03:30.019Z,1027.1
2017-10-23T10:04:30.013Z,1027.02
2017-10-23T10:05:30.009Z,1026.92
2017-10-23T10:06:30.007Z,1026.91
2017-10-23T10:07:30.009Z,1026.84
2017-10-23T10:08:29.993Z,1026.85
2017-10-23T10:09:29.992Z,1026.82
2017-10-23T10:10:29.984Z,1026.83
2017-10-23T10:11:29.979Z,1026.96
2017-10-23T10:12:29.974Z,1027.08
2017-10-23T10:13:29.969Z,1027.2
2017-10-23T10:14:29.964Z,1027.26
2017-10-23T10:15:29.959Z,1027.35
2017-10-23T10:16:29.954Z,1027.43
2017-10-23T10:17:29.948Z,1027.5
2017-10-23T10:18:29.945Z,1027.51
2017-10-23T10:19:29.938Z,1027.53
2017-10-23T10:20:29.934Z,1027.54
2017-10-23T10:21:29.930Z,1027.58
2017-10-23T10:22:29.924Z,1027.65
2017-10-23T10:23:29.918Z,1027.71
2017-10-23T10:24:29.914Z,1027.77
2017-10-23T10:25:29.910Z,1027.78
2017-10-23T10:26:29.904Z,1027.8
2017-10-23T10:27:29.902Z,1027.74
2017-10-23T10:28:29.894Z,1027.7
2017-10-23T10:29:29.888Z,1027.63
2017-10-23T10:30:29.885Z,1027.67
2017-10-23T10:31:29.879Z,1027.62
2017-10-23T10:32:29.874Z,1027.7
2017-10-23T10:33:29.868Z,1027.75
2017-10-23T10:34:29.862Z,1027.77
2017-10-23T10:35:29.859Z,1027.81
2017-10-23T10:36:29.854Z,1027.85
2017-10-23T10:37:29.848Z,1027.87
2017-10-23T10:38:29.848Z,1027.84
2017-10-23T10:39:29.838Z,1027.8
2017-10-23T10:40:29.833Z,1027.74
2017-10-23T10:41:29.826Z,1027.8
2017-10-23T10:42:29.821Z,1027.83
2017-10-23T10:43:29.817Z,1027.88
2017-10-23T10:44:29.811Z,1027.97
2017-10-23T10:45:29.807Z,1027.99
2017-10-23T10:46:29.800Z,1028.03
2017-10-23T10:47:29.797Z,1028.04
2017-10-23T10:48:29.790Z,1028.04
2017-10-23T10:49:29.785Z,1028.05
2017-10-23T10:50:29.780Z,1028.05
2017-10-23T10:51:29.790Z,1028.09
2017-10-23T10:52:29.770Z,1028.09
2017-10-23T10:53:29.763Z,1028.04
2017-10-23T10:54:29.761Z,1028.07
2017-10-23T10:55:29.754Z,1028.11
2017-10-23T10:56:29.748Z,1028.14
2017-10-23T10:57:29.743Z,1028.12
2017-10-23T10:58:29.738Z,1028.12
2017-10-23T10:59:29.732Z,1028.19
2017-10-23T11:00:29.727Z,1028.23
2017-10-23T11:01:29.722Z,1028.24
2017-10-23T11:02:29.715Z,1028.3
2017-10-23T11:03:29.710Z,1028.37
2017-10-23T11:04:29.705Z,1028.37
2017-10-23T11:05:29.699Z,1028.38
2017-10-23T11:06:29.693Z,1028.4
2017-10-23T11:07:29.689Z,1028.4
2017-10-23T11:08:29.683Z,1028.51
2017-10-23T11:09:29.683Z,1028.59
2017-10-23T11:10:29.671Z,1028.59
2017-10-23T11:11:29.667Z,1028.56
2017-10-23T11:12:29.662Z,1028.5
2017-10-23T11:13:29.654Z,1028.52
2017-10-23T11:14:29.649Z,1028.41
2017-10-23T11:15:29.643Z,1028.4
2017-10-23T11:16:29.637Z,1028.46
2017-10-23T11:17:29.632Z,1028.43
2017-10-23T11:18:29.630Z,1028.41
2017-10-23T11:19:29.621Z,1028.37
2017-10-23T11:20:29.617Z,1028.32
2017-10-23T11:21:29.610Z,1028.31
2017-10-23T11:22:29.604Z,1028.25
2017-10-23T11:23:29.598Z,1028.19
2017-10-23T11:24:29.595Z,1028.12
2017-10-23T11:25:29.586Z,1028.14
2017-10-23T11:26:29.582Z,1028.07
2017-10-23T11:27:29.576Z,1028.03
2017-10-23T11:28:29.571Z,1028.03
2017-10-23T11:29:29.568Z,1027.94
2017-10-23T11:30:29.560Z,1027.9
2017-10-23T11:31:29.554Z,1027.85
2017-10-23T11:32:29.549Z,1027.86
2017-10-23T11:33:29.546Z,1027.85
2017-10-23T11:34:29.838Z,1027.92
2017-10-23T11:35:29.537Z,1027.91
2017-10-23T11:36:29.526Z,1027.98
2017-10-23T11:37:29.521Z,1028.01
2017-10-23T11:38:29.516Z,1028.03
2017-10-23T11:39:29.509Z,1028.05
2017-10-23T11:40:29.504Z,1028.11
2017-10-23T11:41:29.500Z,1028.1
2017-10-23T11:42:29.494Z,1028.14
2017-10-23T11:43:29.487Z,1028.18
2017-10-23T11:44:29.483Z,1028.15
2017-10-23T11:45:29.485Z,1028.16
2017-10-23T11:46:29.472Z,1028.12
2017-10-23T11:47:29.472Z,1028.15
2017-10-23T11:48:29.461Z,1028.15
2017-10-23T11:49:29.456Z,1028.12
2017-10-23T11:50:29.450Z,1028.12
2017-10-23T11:51:29.444Z,1028.09
2017-10-23T11:52:29.438Z,1028.06
2017-10-23T11:53:29.433Z,1028.1
2017-10-23T11:54:29.429Z,1028.14
2017-10-23T11:55:29.422Z,1028.27
2017-10-23T11:56:29.416Z,1028.31
2017-10-23T11:57:29.411Z,1028.42
2017-10-23T11:58:29.404Z,1028.49
2017-10-23T11:59:29.400Z,1028.57
2017-10-23T12:00:29.396Z,1028.61
2017-10-23T12:01:29.402Z,1028.62
2017-10-23T12:02:29.383Z,1028.62
2017-10-23T12:03:29.378Z,1028.63
2017-10-23T12:04:29.372Z,1028.65
2017-10-23T12:05:29.364Z,1028.71
2017-10-23T12:06:29.359Z,1028.66
2017-10-23T12:07:29.366Z,1028.64
2017-10-23T12:08:29.353Z,1028.73